Time;durP1;ratioP1;P1;durP2;ratioP2;P2;SDS_P1;SDS_P2;PMS_P1;PMS_P2;Temp;Humidity;BMP_temperature;BMP_pressure;BME280_temperature;BME280_humidity;BME280_pressure;Samples;Min_cycle;Max_cycle;Signal;HPM_P1;HPM_P2
2021/08/28 00:03:23;;;;;;;11.50;6.83;;;;;;;14.87;100.00;98840.41;4568810;78;28477;-75
2021/08/28 00:09:24;;;;;;;14.35;7.85;;;;;;;14.98;100.00;98840.72;4568599;77;28531;-75
2021/08/28 00:15:26;;;;;;;12.00;8.23;;;;;;;14.92;100.00;98837.71;4569365;77;28477;-75
2021/08/28 00:21:27;;;;;;;13.58;7.37;;;;;;;14.78;100.00;98842.79;4569372;78;28469;-75
2021/08/28 00:27:28;;;;;;;11.53;7.47;;;;;;;15.18;100.00;98850.00;4569747;77;28471;-75
2021/08/28 00:33:29;;;;;;;11.85;7.25;;;;;;;15.48;100.00;98857.93;4576081;77;28483;-76
2021/08/28 00:39:30;;;;;;;12.47;8.28;;;;;;;15.38;100.00;98857.91;4609930;77;28553;-75
2021/08/28 00:45:34;;;;;;;13.15;8.78;;;;;;;15.29;100.00;98859.78;4610900;77;28523;-75
2021/08/28 00:51:38;;;;;;;11.33;6.80;;;;;;;15.17;100.00;98860.00;4610624;77;28565;-74
2021/08/28 00:57:40;;;;;;;14.87;7.37;;;;;;;14.95;100.00;98868.33;4610626;77;28472;-74
2021/08/28 01:03:44;;;;;;;9.98;6.12;;;;;;;14.86;100.00;98865.30;4610181;77;28464;-75
2021/08/28 01:09:51;;;;;;;9.68;6.25;;;;;;;14.15;100.00;98865.94;4610600;77;28452;-74
2021/08/28 01:16:13;;;;;;;7.65;6.08;;;;;;;14.40;100.00;98866.37;4612801;77;28484;-75
2021/08/28 01:22:19;;;;;;;10.03;5.87;;;;;;;15.03;100.00;98868.36;4579886;77;28563;-74
2021/08/28 01:28:27;;;;;;;11.50;6.37;;;;;;;14.17;100.00;98872.45;4559695;78;28542;-74
2021/08/28 01:34:32;;;;;;;9.60;6.30;;;;;;;13.74;100.00;98869.65;4576129;77;28520;-75
2021/08/28 01:40:34;;;;;;;9.03;6.25;;;;;;;13.65;100.00;98863.91;4594139;77;28579;-74
2021/08/28 01:46:41;;;;;;;9.08;6.20;;;;;;;13.62;100.00;98866.57;4599067;77;28483;-75
2021/08/28 01:52:43;;;;;;;8.55;5.05;;;;;;;13.36;100.00;98871.67;4593469;77;28547;-75
2021/08/28 01:58:44;;;;;;;6.65;4.25;;;;;;;14.08;100.00;98864.80;4560222;77;28457;-75
2021/08/28 02:05:01;;;;;;;8.43;4.87;;;;;;;13.31;100.00;98870.80;4536607;77;28523;-75
2021/08/28 02:11:12;;;;;;;8.38;4.92;;;;;;;13.90;100.00;98876.83;4568406;78;28525;-75
2021/08/28 02:17:14;;;;;;;7.28;5.37;;;;;;;13.90;100.00;98871.42;4568988;77;28469;-75
2021/08/28 02:23:21;;;;;;;7.75;4.00;;;;;;;13.63;100.00;98876.83;4531955;77;28467;-74
2021/08/28 02:29:38;;;;;;;10.30;4.80;;;;;;;13.42;100.00;98866.34;4542291;76;28477;-74
2021/08/28 02:35:42;;;;;;;9.65;5.00;;;;;;;14.46;100.00;98869.38;4567439;77;28491;-75
2021/08/28 02:41:44;;;;;;;9.13;5.60;;;;;;;14.73;100.00;98873.34;4590756;76;28530;-75
2021/08/28 02:47:47;;;;;;;7.70;5.20;;;;;;;14.76;100.00;98876.07;4497233;79;28499;-75
2021/08/28 02:53:50;;;;;;;7.72;5.10;;;;;;;14.51;100.00;98888.36;4590289;76;28457;-75
2021/08/28 02:59:51;;;;;;;8.00;4.30;;;;;;;14.34;100.00;98893.38;4521017;79;28441;-75
2021/08/28 03:05:55;;;;;;;8.00;3.70;;;;;;;13.87;100.00;98898.14;4558858;78;28536;-75
2021/08/28 03:11:58;;;;;;;5.55;3.80;;;;;;;14.17;100.00;98888.11;4543164;77;28444;-75
2021/08/28 03:18:00;;;;;;;7.55;4.28;;;;;;;14.21;100.00;98889.25;4610250;77;28498;-75
2021/08/28 03:24:05;;;;;;;8.38;4.65;;;;;;;13.35;100.00;98886.23;4609704;77;28492;-75
2021/08/28 03:30:12;;;;;;;5.87;4.25;;;;;;;13.29;100.00;98892.67;4543932;77;28491;-75
2021/08/28 03:36:16;;;;;;;5.72;4.37;;;;;;;13.09;100.00;98890.01;4476803;79;28522;-75
2021/08/28 03:42:19;;;;;;;6.03;3.80;;;;;;;12.93;100.00;98886.82;4476216;79;28519;-74
2021/08/28 03:48:21;;;;;;;5.45;3.60;;;;;;;12.90;100.00;98890.03;4476851;79;28507;-75
2021/08/28 03:54:22;;;;;;;6.92;4.10;;;;;;;12.83;100.00;98884.82;4477068;79;28535;-75
2021/08/28 04:00:24;;;;;;;6.50;3.95;;;;;;;12.94;100.00;98879.00;4476912;79;28490;-75
2021/08/28 04:06:27;;;;;;;6.80;4.05;;;;;;;12.72;100.00;98877.11;4476895;79;28490;-75
2021/08/28 04:12:29;;;;;;;6.80;3.87;;;;;;;13.25;100.00;98880.20;4476780;79;28488;-75
2021/08/28 04:18:32;;;;;;;5.92;3.72;;;;;;;13.18;100.00;98875.52;4475905;77;28573;-75
2021/08/28 04:24:35;;;;;;;4.72;3.45;;;;;;;13.50;100.00;98874.81;4477837;77;28507;-76
2021/08/28 04:30:41;;;;;;;7.12;4.30;;;;;;;13.57;100.00;98877.31;4450317;77;28456;-75
2021/08/28 04:36:43;;;;;;;7.37;4.47;;;;;;;13.66;100.00;98888.49;4476625;79;28502;-75
2021/08/28 04:42:44;;;;;;;6.45;3.47;;;;;;;13.94;100.00;98901.43;4476615;79;28506;-75
2021/08/28 04:48:48;;;;;;;6.15;3.80;;;;;;;14.01;100.00;98895.84;4454233;79;28534;-75
2021/08/28 04:55:00;;;;;;;6.30;3.75;;;;;;;14.08;100.00;98895.06;4446679;79;28472;-75
2021/08/28 05:01:02;;;;;;;6.87;4.55;;;;;;;14.45;100.00;98893.44;4477092;79;28519;-75
2021/08/28 05:07:05;;;;;;;7.40;4.35;;;;;;;14.82;100.00;98896.69;4474233;79;28536;-76
2021/08/28 05:13:21;;;;;;;8.43;4.63;;;;;;;14.38;100.00;98899.08;4446746;79;28538;-78
2021/08/28 05:19:22;;;;;;;7.78;3.98;;;;;;;14.56;100.00;98895.69;4477494;79;28531;-77
2021/08/28 05:25:25;;;;;;;7.05;3.98;;;;;;;14.84;100.00;98892.34;4513931;78;28464;-77
2021/08/28 05:31:27;;;;;;;7.35;4.58;;;;;;;15.31;100.00;98898.80;4562051;77;28513;-77
2021/08/28 05:37:29;;;;;;;7.42;4.37;;;;;;;15.55;100.00;98910.50;4562795;77;28473;-77
2021/08/28 05:43:44;;;;;;;5.83;3.60;;;;;;;15.61;100.00;98910.77;4560478;76;28548;-78
2021/08/28 05:49:48;;;;;;;5.72;3.52;;;;;;;15.54;100.00;98908.88;4515224;76;28489;-78
2021/08/28 05:55:53;;;;;;;5.97;3.57;;;;;;;15.88;100.00;98917.34;4468142;77;28492;-80
2021/08/28 06:01:55;;;;;;;6.10;3.80;;;;;;;15.23;100.00;98915.55;4554384;78;28499;-80
2021/08/28 06:07:57;;;;;;;6.03;3.77;;;;;;;15.80;100.00;98915.69;4519032;77;28494;-79
2021/08/28 06:14:17;;;;;;;3.67;2.92;;;;;;;16.15;100.00;98920.36;4550191;78;28492;-80
2021/08/28 06:20:20;;;;;;;4.28;2.85;;;;;;;16.41;100.00;98919.55;4541171;76;28467;-79
2021/08/28 06:26:22;;;;;;;3.45;2.62;;;;;;;16.55;100.00;98911.66;4481131;79;28568;-80
2021/08/28 06:32:24;;;;;;;6.10;3.05;;;;;;;16.65;100.00;98905.39;4516776;78;28457;-79
2021/08/28 06:38:26;;;;;;;5.20;1.92;;;;;;;17.12;100.00;98906.92;4520667;78;28545;-78
2021/08/28 06:44:39;;;;;;;3.15;1.55;;;;;;;17.12;100.00;98901.48;4480862;79;28483;-78
2021/08/28 06:51:00;;;;;;;3.27;2.08;;;;;;;17.45;100.00;98911.94;4572485;77;28503;-78
2021/08/28 06:57:18;;;;;;;3.00;2.20;;;;;;;17.64;100.00;98909.38;4486592;77;28441;-79
2021/08/28 07:03:23;;;;;;;2.57;1.70;;;;;;;17.98;100.00;98898.28;4522056;78;28515;-78
2021/08/28 07:09:25;;;;;;;4.25;1.90;;;;;;;18.28;97.36;98893.72;4562213;77;28476;-79
2021/08/28 07:15:26;;;;;;;4.80;1.57;;;;;;;18.41;98.04;98894.94;4549038;78;28515;-80
2021/08/28 07:21:28;;;;;;;2.58;1.70;;;;;;;18.31;94.34;98899.11;4502316;78;28527;-78
2021/08/28 07:27:30;;;;;;;1.80;1.50;;;;;;;18.46;95.33;98904.97;4504650;79;28472;-78
2021/08/28 07:33:33;;;;;;;2.85;1.30;;;;;;;18.78;89.95;98898.93;4500554;79;28499;-81
2021/08/28 07:39:35;;;;;;;2.55;1.67;;;;;;;19.06;90.36;98904.64;4450083;78;28464;-81
2021/08/28 07:45:36;;;;;;;2.37;1.60;;;;;;;19.02;86.87;98906.31;4403591;79;28454;-80
2021/08/28 07:51:39;;;;;;;2.87;1.50;;;;;;;18.98;81.29;98905.25;4408214;79;28460;-81
2021/08/28 07:57:41;;;;;;;1.45;1.30;;;;;;;19.09;82.84;98910.05;4415045;79;28479;-81
2021/08/28 08:03:42;;;;;;;2.08;1.30;;;;;;;19.00;80.85;98909.03;4475831;80;28472;-81
2021/08/28 08:09:54;;;;;;;2.10;1.07;;;;;;;19.67;76.73;98903.29;4475712;79;28469;-79
2021/08/28 08:16:14;;;;;;;1.75;1.00;;;;;;;19.84;76.17;98900.06;4474559;80;28478;-79
2021/08/28 08:22:17;;;;;;;1.82;1.05;;;;;;;19.16;79.73;98892.80;4470528;79;28479;-79
2021/08/28 08:28:20;;;;;;;1.37;1.10;;;;;;;19.47;78.04;98900.57;4365352;78;28490;-80
2021/08/28 08:34:40;;;;;;;1.12;0.80;;;;;;;19.47;76.80;98905.20;4367815;78;28477;-81
2021/08/28 08:40:44;;;;;;;0.95;0.88;;;;;;;19.43;74.08;98898.19;4557587;77;28554;-80
2021/08/28 08:46:46;;;;;;;1.17;1.00;;;;;;;19.94;72.88;98901.27;4509037;78;28520;-80
2021/08/28 08:52:55;;;;;;;2.00;1.00;;;;;;;20.08;71.39;98905.99;4516706;78;28504;-80
2021/08/28 08:59:04;;;;;;;1.30;1.02;;;;;;;20.20;71.32;98903.60;4548923;76;28468;-82
2021/08/28 09:05:08;;;;;;;0.93;0.82;;;;;;;20.47;69.57;98905.59;4536177;77;28528;-83
2021/08/28 09:11:30;;;;;;;1.47;1.10;;;;;;;20.85;67.75;98906.02;4534564;76;28900;-79
2021/08/28 09:17:31;;;;;;;2.00;1.10;;;;;;;20.72;67.12;98900.78;4503027;77;28475;-78
2021/08/28 09:23:39;;;;;;;1.52;1.20;;;;;;;20.62;68.73;98902.34;4527581;77;28474;-79
2021/08/28 09:29:43;;;;;;;2.12;1.12;;;;;;;20.84;66.90;98900.30;4532738;77;28432;-79
2021/08/28 09:35:50;;;;;;;1.12;0.98;;;;;;;21.03;66.07;98894.75;4485275;77;28503;-82
2021/08/28 09:41:54;;;;;;;2.10;1.37;;;;;;;21.42;63.05;98880.26;4552731;76;28531;-79
2021/08/28 09:47:57;;;;;;;1.55;1.10;;;;;;;21.55;61.47;98889.52;4532243;76;28528;-78
2021/08/28 09:54:00;;;;;;;1.80;1.30;;;;;;;21.77;60.83;98888.54;4493122;77;28522;-79
2021/08/28 10:00:04;;;;;;;1.37;1.07;;;;;;;21.65;62.14;98878.92;4521324;76;28690;-78
2021/08/28 10:06:06;;;;;;;1.82;1.00;;;;;;;21.84;59.54;98888.92;4510072;76;28481;-79
2021/08/28 10:12:09;;;;;;;2.17;1.40;;;;;;;22.06;61.57;98885.36;4542547;76;28473;-78
2021/08/28 10:18:11;;;;;;;2.83;1.85;;;;;;;22.08;64.23;98879.04;4518084;76;28449;-79
2021/08/28 10:24:14;;;;;;;1.60;1.17;;;;;;;22.24;58.69;98878.09;4499944;76;28939;-80
2021/08/28 10:30:18;;;;;;;1.22;1.00;;;;;;;22.47;62.24;98879.41;4521739;76;28498;-81
2021/08/28 10:36:19;;;;;;;2.00;1.17;;;;;;;22.44;57.67;98871.84;4548681;77;28500;-79
2021/08/28 10:42:22;;;;;;;1.75;1.40;;;;;;;22.48;58.88;98870.63;4498675;76;28471;-80
2021/08/28 10:48:24;;;;;;;1.85;1.00;;;;;;;22.58;55.12;98874.48;4490717;77;28488;-79
2021/08/28 10:54:30;;;;;;;2.55;1.10;;;;;;;22.62;54.54;98878.23;4530547;77;28471;-80
2021/08/28 11:00:42;;;;;;;2.05;1.20;;;;;;;22.61;52.48;98881.27;4504571;76;28476;-79
2021/08/28 11:06:43;;;;;;;1.17;0.90;;;;;;;22.67;53.92;98878.08;4503127;77;28484;-79
2021/08/28 11:12:59;;;;;;;2.10;1.10;;;;;;;22.86;53.95;98874.83;4535690;77;28460;-79
2021/08/28 11:19:00;;;;;;;1.77;1.07;;;;;;;22.38;53.87;98871.14;4498404;76;28495;-79
2021/08/28 11:25:05;;;;;;;1.60;1.20;;;;;;;23.41;51.76;98865.88;4514783;77;28559;-79
2021/08/28 11:31:09;;;;;;;1.65;0.80;;;;;;;23.69;50.90;98866.37;4507030;76;28500;-80
2021/08/28 11:37:35;;;;;;;1.57;1.00;;;;;;;23.76;47.97;98874.94;4513198;77;28537;-79
2021/08/28 11:43:43;;;;;;;1.55;0.70;;;;;;;23.98;47.65;98881.92;4553393;76;28517;-78
2021/08/28 11:49:45;;;;;;;0.55;0.55;;;;;;;24.37;49.42;98886.98;4541243;76;28436;-82
2021/08/28 11:55:46;;;;;;;0.88;0.50;;;;;;;24.65;47.30;98887.94;4509306;76;28490;-78
2021/08/28 12:01:47;;;;;;;1.25;0.50;;;;;;;24.61;43.77;98886.97;4565942;77;28549;-78
2021/08/28 12:07:53;;;;;;;1.47;0.53;;;;;;;24.70;45.02;98890.50;4497883;77;28499;-78
2021/08/28 12:13:59;;;;;;;1.43;0.70;;;;;;;24.93;45.55;98891.62;4559146;77;28480;-77
2021/08/28 12:20:03;;;;;;;1.30;0.50;;;;;;;24.97;43.41;98890.41;4560417;77;28475;-75
2021/08/28 12:26:16;;;;;;;0.78;0.53;;;;;;;24.99;42.32;98895.00;4566125;77;28503;-76
2021/08/28 12:32:22;;;;;;;0.68;0.50;;;;;;;25.25;42.56;98892.68;4535895;77;28564;-76
2021/08/28 12:38:30;;;;;;;2.62;0.50;;;;;;;25.61;43.03;98875.61;4551861;76;28491;-77
2021/08/28 12:44:32;;;;;;;0.50;0.47;;;;;;;25.73;41.07;98886.45;4574907;77;28543;-77
2021/08/28 12:50:34;;;;;;;0.62;0.60;;;;;;;25.75;42.48;98878.66;4534376;78;28523;-77
2021/08/28 12:56:48;;;;;;;0.50;0.50;;;;;;;25.69;40.17;98871.17;4503798;78;28461;-77
2021/08/28 13:02:50;;;;;;;0.62;0.53;;;;;;;25.72;41.72;98849.05;4503726;78;28490;-77
2021/08/28 13:08:51;;;;;;;0.98;0.50;;;;;;;25.30;41.84;98845.70;4517388;77;28504;-78
2021/08/28 13:14:55;;;;;;;0.50;0.47;;;;;;;25.06;43.07;98854.86;4513707;77;28475;-78
2021/08/28 13:20:56;;;;;;;1.37;0.70;;;;;;;25.22;42.85;98857.01;4536808;77;28465;-79
2021/08/28 13:27:08;;;;;;;1.17;0.85;;;;;;;25.39;43.03;98852.54;4497947;77;28515;-78
2021/08/28 13:33:10;;;;;;;1.00;0.60;;;;;;;25.13;41.17;98848.00;4481999;77;28460;-79
2021/08/28 13:39:11;;;;;;;0.93;0.70;;;;;;;25.13;42.17;98832.33;4495517;77;28510;-79
2021/08/28 13:45:17;;;;;;;0.75;0.50;;;;;;;24.90;41.89;98832.63;4524892;77;28429;-79
2021/08/28 13:51:18;;;;;;;1.10;0.70;;;;;;;24.81;42.50;98829.13;4526992;77;28551;-78
2021/08/28 13:57:19;;;;;;;1.70;0.80;;;;;;;24.78;44.73;98820.96;4387343;78;28512;-79
2021/08/28 14:03:21;;;;;;;1.07;0.98;;;;;;;25.00;44.96;98827.89;4338565;80;28505;-79
2021/08/28 14:09:22;;;;;;;0.78;0.78;;;;;;;25.11;42.82;98823.61;4338225;80;28457;-80
2021/08/28 14:15:24;;;;;;;2.30;1.00;;;;;;;25.01;44.48;98836.38;4346107;80;28460;-82
2021/08/28 14:21:25;;;;;;;0.78;0.75;;;;;;;25.06;43.05;98825.98;4335546;79;28557;-79
2021/08/28 14:27:27;;;;;;;0.78;0.78;;;;;;;25.14;43.55;98830.36;4346560;80;28459;-82
2021/08/28 14:33:28;;;;;;;1.27;0.80;;;;;;;25.04;42.43;98835.14;4342903;80;28449;-79
2021/08/28 14:39:29;;;;;;;0.70;0.70;;;;;;;25.20;44.35;98835.91;4350085;80;28534;-78
2021/08/28 14:45:30;;;;;;;1.57;0.70;;;;;;;25.31;43.39;98831.62;4333867;79;28512;-78
2021/08/28 14:51:32;;;;;;;2.00;0.88;;;;;;;25.47;45.35;98826.91;4339472;80;28571;-78
2021/08/28 14:57:33;;;;;;;1.15;0.90;;;;;;;25.29;42.37;98814.66;4355331;79;28502;-78
2021/08/28 15:03:34;;;;;;;0.88;0.80;;;;;;;24.67;41.68;98840.31;4353964;80;28494;-78
2021/08/28 15:09:35;;;;;;;1.37;0.90;;;;;;;24.75;43.16;98837.28;4368691;79;28561;-79
2021/08/28 15:15:37;;;;;;;3.08;0.80;;;;;;;24.86;43.58;98830.30;4359156;80;28498;-77
2021/08/28 15:21:38;;;;;;;2.22;0.80;;;;;;;24.89;43.72;98826.91;4363424;79;28458;-79
2021/08/28 15:27:39;;;;;;;1.15;0.90;;;;;;;24.85;45.05;98828.69;4359786;79;28439;-79
2021/08/28 15:33:42;;;;;;;1.45;0.90;;;;;;;24.80;45.97;98827.52;4345343;79;28522;-79
2021/08/28 15:39:45;;;;;;;1.42;0.90;;;;;;;24.76;46.06;98827.89;4386500;79;28530;-78
2021/08/28 15:45:47;;;;;;;1.40;0.70;;;;;;;24.63;46.30;98821.52;4392677;80;28471;-79
2021/08/28 15:51:49;;;;;;;1.22;0.70;;;;;;;24.64;44.81;98825.87;4342267;80;28452;-80
2021/08/28 15:57:50;;;;;;;0.98;0.88;;;;;;;24.56;46.97;98824.75;4348498;80;28469;-80
2021/08/28 16:03:51;;;;;;;2.87;0.90;;;;;;;24.47;50.54;98833.59;4338121;80;28481;-79
2021/08/28 16:09:53;;;;;;;2.12;0.90;;;;;;;24.45;52.11;98833.13;4346721;80;28567;-79
2021/08/28 16:15:54;;;;;;;2.15;0.98;;;;;;;24.29;55.55;98829.56;4345590;80;28435;-80
2021/08/28 16:21:56;;;;;;;1.82;1.00;;;;;;;23.64;58.15;98826.17;4345060;80;28509;-81
2021/08/28 16:27:57;;;;;;;3.30;0.98;;;;;;;23.39;62.60;98829.16;4345640;80;28474;-81
2021/08/28 16:33:59;;;;;;;1.65;1.30;;;;;;;23.79;64.72;98825.42;4330242;80;28493;-80
2021/08/28 16:40:01;;;;;;;3.10;1.20;;;;;;;23.13;55.04;98823.08;4429491;78;28481;-79
2021/08/28 16:46:03;;;;;;;1.30;1.00;;;;;;;23.77;58.03;98823.58;4499915;77;28472;-77
2021/08/28 16:52:05;;;;;;;3.22;2.00;;;;;;;23.65;56.51;98822.30;4489355;78;28471;-80
2021/08/28 16:58:06;;;;;;;1.85;1.12;;;;;;;23.47;54.01;98820.69;4521164;78;28473;-79
2021/08/28 17:04:07;;;;;;;1.50;1.10;;;;;;;23.14;66.34;98820.58;4531293;77;28463;-79
2021/08/28 17:10:09;;;;;;;1.75;1.02;;;;;;;22.52;70.89;98820.98;4514874;77;28456;-80
2021/08/28 17:16:11;;;;;;;3.25;1.15;;;;;;;21.88;84.34;98826.97;4513966;77;28455;-78
2021/08/28 17:22:12;;;;;;;1.52;1.12;;;;;;;21.61;83.44;98831.98;4502108;77;28436;-79
2021/08/28 17:28:14;;;;;;;3.02;1.10;;;;;;;21.39;83.85;98834.95;4466809;78;28491;-79
2021/08/28 17:34:16;;;;;;;1.67;1.20;;;;;;;22.24;80.27;98845.78;4489847;77;28473;-79
2021/08/28 17:40:17;;;;;;;2.72;1.40;;;;;;;22.14;80.13;98848.23;4488055;77;28562;-79
2021/08/28 17:46:19;;;;;;;3.65;1.57;;;;;;;22.05;82.58;98849.53;4493660;77;28453;-77
2021/08/28 17:52:20;;;;;;;5.17;1.62;;;;;;;21.81;85.45;98849.30;4490147;77;28491;-77
2021/08/28 17:58:21;;;;;;;3.45;1.60;;;;;;;21.66;84.87;98845.52;4484705;77;28489;-78
2021/08/28 18:04:23;;;;;;;2.00;1.50;;;;;;;21.09;90.45;98846.80;4483618;77;28528;-81
2021/08/28 18:10:25;;;;;;;2.92;1.60;;;;;;;21.51;83.91;98843.98;4496364;78;28468;-82
2021/08/28 18:16:26;;;;;;;3.80;1.98;;;;;;;21.30;85.96;98858.11;4500736;78;28472;-82
2021/08/28 18:22:27;;;;;;;3.62;2.10;;;;;;;21.02;90.32;98864.41;4490197;78;28440;-80
2021/08/28 18:28:28;;;;;;;4.67;2.12;;;;;;;21.23;86.12;98868.08;4423910;79;28638;-80
2021/08/28 18:34:30;;;;;;;4.15;2.25;;;;;;;21.15;87.37;98881.13;4392313;78;28428;-81
2021/08/28 18:40:31;;;;;;;4.67;2.62;;;;;;;20.72;87.66;98885.77;4367037;78;28629;-81
2021/08/28 18:46:34;;;;;;;4.22;2.90;;;;;;;20.58;91.79;98887.11;4416754;79;28527;-79
2021/08/28 18:52:35;;;;;;;6.50;4.08;;;;;;;20.67;89.64;98879.56;4370598;79;28490;-81
2021/08/28 18:58:37;;;;;;;7.70;4.40;;;;;;;20.74;88.44;98882.16;4345780;79;28557;-81
2021/08/28 19:04:38;;;;;;;9.65;5.12;;;;;;;20.64;89.53;98889.73;4357286;79;28467;-80
2021/08/28 19:10:40;;;;;;;9.25;5.22;;;;;;;20.89;84.04;98885.19;4389758;79;28473;-80
2021/08/28 19:16:41;;;;;;;9.80;4.60;;;;;;;20.65;90.44;98896.27;4354582;80;28555;-81
2021/08/28 19:22:42;;;;;;;7.28;4.50;;;;;;;20.54;92.84;98897.00;4373412;79;28473;-80
2021/08/28 19:28:44;;;;;;;8.53;4.08;;;;;;;20.27;96.29;98894.48;4396626;79;28473;-79
2021/08/28 19:34:45;;;;;;;11.18;5.20;;;;;;;20.43;95.27;98894.20;4360808;79;28453;-80
2021/08/28 19:40:46;;;;;;;7.60;4.58;;;;;;;20.18;100.00;98894.91;4362829;79;28509;-79
2021/08/28 19:46:49;;;;;;;9.33;5.08;;;;;;;20.22;99.31;98894.55;4357760;79;28451;-80
2021/08/28 19:52:51;;;;;;;7.45;4.90;;;;;;;20.21;98.99;98887.48;4369343;79;28548;-84
2021/08/28 19:58:52;;;;;;;8.83;5.28;;;;;;;20.16;100.00;98897.92;4355412;79;28583;-81
2021/08/28 20:04:54;;;;;;;9.15;5.17;;;;;;;20.26;100.00;98886.05;4369546;79;28548;-83
2021/08/28 20:10:55;;;;;;;8.35;4.92;;;;;;;20.26;100.00;98888.77;4369624;79;28494;-84
2021/08/28 20:16:56;;;;;;;9.78;5.60;;;;;;;20.31;100.00;98885.14;4519999;78;28559;-81
2021/08/28 20:22:58;;;;;;;8.88;5.45;;;;;;;20.14;100.00;98884.31;4498158;77;28431;-82
2021/08/28 20:28:59;;;;;;;8.50;4.95;;;;;;;19.93;100.00;98888.74;4498211;77;28508;-83
2021/08/28 20:35:04;;;;;;;8.45;5.58;;;;;;;20.03;100.00;98888.58;4498270;78;28498;-83
2021/08/28 20:41:05;;;;;;;10.85;5.62;;;;;;;19.91;100.00;98892.30;4491242;77;28458;-84
2021/08/28 20:47:07;;;;;;;11.08;6.17;;;;;;;19.72;100.00;98889.03;4511864;77;28486;-83
2021/08/28 20:53:09;;;;;;;11.70;6.65;;;;;;;19.65;100.00;98886.67;4486337;78;28494;-84
2021/08/28 20:59:11;;;;;;;11.68;6.60;;;;;;;19.62;100.00;98882.36;4498692;77;28462;-83
2021/08/28 21:05:12;;;;;;;11.33;6.87;;;;;;;19.67;100.00;98880.94;4488259;78;28485;-83
2021/08/28 21:11:13;;;;;;;9.28;6.22;;;;;;;19.50;100.00;98878.16;4487697;78;28426;-83
2021/08/28 21:17:16;;;;;;;10.85;6.53;;;;;;;19.43;100.00;98876.91;4509241;78;28454;-82
2021/08/28 21:23:17;;;;;;;10.18;6.33;;;;;;;19.40;100.00;98878.88;4503845;77;28460;-82
2021/08/28 21:29:19;;;;;;;9.63;6.30;;;;;;;19.47;100.00;98867.85;4498288;78;28451;-81
2021/08/28 21:35:20;;;;;;;12.37;6.53;;;;;;;19.70;100.00;98868.63;4487659;77;28471;-81
2021/08/28 21:41:21;;;;;;;10.13;5.97;;;;;;;19.38;100.00;98862.01;4511558;78;28509;-81
2021/08/28 21:47:23;;;;;;;12.93;6.47;;;;;;;19.27;100.00;98861.33;4491231;78;28531;-81
2021/08/28 21:53:25;;;;;;;9.80;5.92;;;;;;;19.10;100.00;98855.81;4497695;78;28512;-81
2021/08/28 21:59:27;;;;;;;9.63;6.40;;;;;;;18.92;100.00;98851.92;4509761;78;28474;-82
2021/08/28 22:05:28;;;;;;;10.58;6.10;;;;;;;19.15;100.00;98859.84;4508586;78;28430;-81
2021/08/28 22:11:29;;;;;;;10.10;6.08;;;;;;;19.22;100.00;98867.12;4493987;77;28433;-81
2021/08/28 22:17:32;;;;;;;11.70;6.37;;;;;;;18.92;100.00;98869.09;4507581;77;28589;-81
2021/08/28 22:23:33;;;;;;;12.58;6.75;;;;;;;19.18;100.00;98867.99;4514304;77;28471;-82
2021/08/28 22:29:35;;;;;;;13.38;7.28;;;;;;;19.26;100.00;98867.31;4483243;77;28525;-82
2021/08/28 22:35:36;;;;;;;11.25;6.83;;;;;;;19.19;100.00;98864.95;4484596;78;28485;-82
2021/08/28 22:41:37;;;;;;;10.32;6.85;;;;;;;19.02;100.00;98865.45;4514827;77;28474;-81
2021/08/28 22:47:39;;;;;;;11.93;7.10;;;;;;;19.02;100.00;98868.17;4550533;77;28472;-82
2021/08/28 22:53:41;;;;;;;13.20;7.22;;;;;;;19.04;100.00;98871.41;4457310;78;28536;-81
2021/08/28 22:59:42;;;;;;;14.63;7.20;;;;;;;19.16;100.00;98865.55;4523232;78;28561;-82
2021/08/28 23:05:44;;;;;;;10.45;6.85;;;;;;;19.11;100.00;98855.27;4538965;78;28452;-82
2021/08/28 23:11:46;;;;;;;10.13;6.62;;;;;;;19.22;100.00;98853.48;4539616;78;28465;-81
2021/08/28 23:17:47;;;;;;;10.28;6.95;;;;;;;19.13;100.00;98855.78;4539033;78;28511;-81
2021/08/28 23:23:48;;;;;;;12.05;6.85;;;;;;;19.21;100.00;98844.23;4516084;78;28459;-81
2021/08/28 23:29:49;;;;;;;10.50;6.37;;;;;;;19.07;100.00;98838.69;4538712;78;28452;-81
2021/08/28 23:35:50;;;;;;;16.48;8.00;;;;;;;19.07;100.00;98836.79;4538366;78;28897;-81
2021/08/28 23:41:52;;;;;;;12.33;7.45;;;;;;;19.27;100.00;98842.25;4539376;78;28540;-81
2021/08/28 23:47:53;;;;;;;12.23;7.65;;;;;;;19.13;100.00;98844.34;4539270;78;28520;-80
2021/08/28 23:53:55;;;;;;;10.45;6.67;;;;;;;19.07;100.00;98837.33;4539312;78;28469;-80
2021/08/28 23:59:56;;;;;;;11.80;6.58;;;;;;;19.05;100.00;98838.97;4539327;78;28580;-81
